createdAt,value
2019-04-20T00:00:50.686Z,17.80
2019-04-20T00:03:16.438Z,19.03
2019-04-20T00:05:46.318Z,17.37
2019-04-20T00:08:22.640Z,19.33
2019-04-20T00:10:57.021Z,19.13
2019-04-20T00:13:28.636Z,19.07
2019-04-20T00:15:51.344Z,18.57
2019-04-20T00:18:21.145Z,19.67
2019-04-20T00:21:06.645Z,19.93
2019-04-20T00:23:45.180Z,21.03
2019-04-20T00:27:06.502Z,21.23
2019-04-20T00:29:25.411Z,21.47
2019-04-20T00:31:49.225Z,21.00
2019-04-20T00:34:17.006Z,21.03
2019-04-20T00:36:41.166Z,20.03
2019-04-20T00:39:12.954Z,20.80
2019-04-20T00:41:51.015Z,20.73
2019-04-20T00:44:22.005Z,19.60
2019-04-20T00:46:57.349Z,21.43
2019-04-20T00:49:30.687Z,22.47
2019-04-20T00:52:15.181Z,21.53
2019-04-20T00:54:20.125Z,20.83
2019-04-20T00:56:50.070Z,20.13
2019-04-20T00:59:31.608Z,20.80
2019-04-20T01:02:10.873Z,23.43
2019-04-20T01:04:43.242Z,23.10
2019-04-20T01:07:28.945Z,19.97
2019-04-20T01:10:17.319Z,20.00
2019-04-20T01:12:47.521Z,21.90
2019-04-20T01:15:28.127Z,22.53
2019-04-20T01:17:51.270Z,21.40
2019-04-20T01:20:22.639Z,21.83
2019-04-20T01:23:00.181Z,21.97
2019-04-20T01:25:29.035Z,20.00
2019-04-20T01:28:19.372Z,22.17
2019-04-20T01:30:33.921Z,20.07
2019-04-20T01:33:12.854Z,20.97
2019-04-20T01:35:47.939Z,21.03
2019-04-20T01:38:21.066Z,20.70
2019-04-20T01:40:33.725Z,19.40
2019-04-20T01:43:03.827Z,20.73
2019-04-20T01:45:37.893Z,21.50
2019-04-20T01:48:07.004Z,21.00
2019-04-20T01:50:42.051Z,21.57
2019-04-20T01:53:16.500Z,20.53
2019-04-20T01:55:55.718Z,20.97
2019-04-20T01:58:55.461Z,21.10
2019-04-20T02:01:24.313Z,19.93
2019-04-20T02:04:15.770Z,20.40
2019-04-20T02:06:48.097Z,21.57
2019-04-20T02:09:15.679Z,21.70
2019-04-20T02:11:46.768Z,21.73
2019-04-20T02:14:25.527Z,23.17
2019-04-20T02:16:49.607Z,22.17
2019-04-20T02:19:32.017Z,20.77
2019-04-20T02:22:03.979Z,21.47
2019-04-20T02:24:21.551Z,21.60
2019-04-20T02:26:51.943Z,21.77
2019-04-20T02:29:46.074Z,21.23
2019-04-20T02:32:23.900Z,20.70
2019-04-20T02:35:18.657Z,21.67
2019-04-20T02:38:10.426Z,21.40
2019-04-20T02:40:40.686Z,21.70
2019-04-20T02:50:43.290Z,21.87
2019-04-20T02:53:10.088Z,23.10
2019-04-20T02:58:18.792Z,22.90
2019-04-20T03:00:35.139Z,22.13
2019-04-20T03:02:55.879Z,21.43
2019-04-20T03:05:29.857Z,23.07
2019-04-20T03:08:08.921Z,23.80
2019-04-20T03:10:50.650Z,23.30
2019-04-20T03:13:15.850Z,21.87
2019-04-20T03:15:42.317Z,21.77
2019-04-20T03:18:17.692Z,20.97
2019-04-20T03:20:47.819Z,21.27
2019-04-20T03:23:36.094Z,24.83
2019-04-20T03:26:13.866Z,23.17
2019-04-20T03:28:56.684Z,25.37
2019-04-20T03:36:41.473Z,23.50
2019-04-20T03:39:03.972Z,26.93
2019-04-20T03:41:26.206Z,27.90
2019-04-20T03:43:49.784Z,27.33
2019-04-20T03:46:30.100Z,26.73
2019-04-20T03:49:07.420Z,27.40
2019-04-20T03:51:47.087Z,27.63
2019-04-20T03:54:24.746Z,26.87
2019-04-20T03:57:18.459Z,26.73
2019-04-20T04:00:00.686Z,27.30
2019-04-20T04:03:02.821Z,25.83
2019-04-20T04:05:42.519Z,26.50
2019-04-20T04:08:09.131Z,25.90
2019-04-20T04:10:47.888Z,26.63
2019-04-20T04:13:09.777Z,26.67
2019-04-20T04:15:46.785Z,27.27
2019-04-20T04:18:23.004Z,27.30
2019-04-20T04:20:51.373Z,26.20
2019-04-20T04:23:35.641Z,26.73
2019-04-20T04:26:04.464Z,27.37
2019-04-20T04:28:36.941Z,26.63
2019-04-20T04:36:10.047Z,25.73
2019-04-20T04:38:47.524Z,25.53
2019-04-20T04:41:19.573Z,25.87
2019-04-20T04:43:44.455Z,25.73
2019-04-20T04:45:59.560Z,26.80
2019-04-20T04:48:35.098Z,27.60
2019-04-20T04:51:08.604Z,25.70
2019-04-20T04:53:44.184Z,25.93
2019-04-20T04:56:09.411Z,26.13
2019-04-20T04:58:36.172Z,25.83
2019-04-20T05:01:11.774Z,28.03
2019-04-20T05:04:02.822Z,26.83
2019-04-20T05:06:30.022Z,27.40
2019-04-20T05:08:55.113Z,26.30
2019-04-20T05:11:21.700Z,25.70
2019-04-20T05:13:58.482Z,26.70
2019-04-20T05:16:43.554Z,25.77
2019-04-20T05:19:29.516Z,27.00
2019-04-20T05:22:08.210Z,26.60
2019-04-20T05:24:33.863Z,25.37
2019-04-20T05:27:32.127Z,25.27
2019-04-20T05:29:42.783Z,24.87
2019-04-20T05:32:18.000Z,24.80
2019-04-20T05:35:09.160Z,24.87
2019-04-20T05:37:41.367Z,25.07
2019-04-20T05:40:11.898Z,24.37
2019-04-20T05:42:48.545Z,25.33
2019-04-20T05:45:16.697Z,25.23
2019-04-20T05:47:48.246Z,25.70
2019-04-20T05:50:23.258Z,25.93
2019-04-20T05:52:56.216Z,26.63
2019-04-20T05:55:29.452Z,25.60
2019-04-20T05:58:03.673Z,25.67
2019-04-20T06:00:37.070Z,25.90
2019-04-20T06:02:57.866Z,25.27
2019-04-20T06:05:38.877Z,25.17
2019-04-20T06:08:09.351Z,24.10
2019-04-20T06:10:55.083Z,25.43
2019-04-20T06:13:48.646Z,24.30
2019-04-20T06:16:45.754Z,24.50
2019-04-20T06:19:24.246Z,24.70
2019-04-20T06:22:03.430Z,24.57
2019-04-20T06:24:42.189Z,25.50
2019-04-20T06:27:05.020Z,24.33
2019-04-20T06:29:34.839Z,24.20
2019-04-20T06:32:10.913Z,22.13
2019-04-20T06:34:39.700Z,21.37
2019-04-20T06:37:07.078Z,22.47
2019-04-20T06:42:23.468Z,22.70
2019-04-20T06:44:39.708Z,22.00
2019-04-20T06:47:17.606Z,20.80
2019-04-20T06:49:42.497Z,20.77
2019-04-20T06:55:09.937Z,17.77
2019-04-20T06:57:45.377Z,18.23
2019-04-20T07:00:18.103Z,18.57
2019-04-20T07:02:48.486Z,17.53
2019-04-20T07:05:22.500Z,18.40
2019-04-20T07:07:54.576Z,17.93
2019-04-20T07:10:25.261Z,17.33
2019-04-20T07:12:50.654Z,16.80
2019-04-20T07:15:22.740Z,16.80
2019-04-20T07:20:46.957Z,19.00
2019-04-20T07:23:23.880Z,16.30
2019-04-20T07:25:43.163Z,15.17
2019-04-20T07:28:14.107Z,15.80
2019-04-20T07:30:46.535Z,15.60
2019-04-20T07:33:16.109Z,14.10
2019-04-20T07:35:49.243Z,17.83
2019-04-20T07:38:31.215Z,18.13
2019-04-20T07:40:44.088Z,18.67
2019-04-20T07:43:20.070Z,18.87
2019-04-20T07:45:51.626Z,19.60
2019-04-20T07:48:23.535Z,18.07
2019-04-20T07:50:44.652Z,16.90
2019-04-20T07:53:22.623Z,16.77
2019-04-20T07:55:58.161Z,16.87
2019-04-20T07:58:22.651Z,16.17
2019-04-20T08:01:14.958Z,16.00
2019-04-20T08:04:04.033Z,16.23
2019-04-20T08:06:28.833Z,16.27
2019-04-20T08:09:08.354Z,16.57
2019-04-20T08:11:50.432Z,16.67
2019-04-20T08:14:19.248Z,16.70
2019-04-20T08:19:23.138Z,14.17
2019-04-20T08:21:52.893Z,11.80
2019-04-20T08:24:21.308Z,13.23
2019-04-20T08:26:42.050Z,12.87
2019-04-20T08:29:33.163Z,13.77
2019-04-20T08:32:41.230Z,12.47
2019-04-20T08:35:25.934Z,12.93
2019-04-20T08:38:01.875Z,13.40
2019-04-20T08:40:25.475Z,13.40
2019-04-20T08:43:02.775Z,11.17
2019-04-20T08:45:34.903Z,12.27
2019-04-20T08:48:09.838Z,11.60
2019-04-20T08:50:36.154Z,11.63
2019-04-20T08:53:16.061Z,9.70
2019-04-20T08:55:33.445Z,9.93
2019-04-20T08:57:49.202Z,9.93
2019-04-20T09:00:25.845Z,44.97
2019-04-20T09:02:55.527Z,11.57
2019-04-20T09:05:34.709Z,10.57
2019-04-20T09:08:02.377Z,9.07
2019-04-20T09:10:43.241Z,8.30
2019-04-20T09:13:09.592Z,10.97
2019-04-20T09:15:28.083Z,10.30
2019-04-20T09:18:05.084Z,10.60
2019-04-20T09:20:45.879Z,11.03
2019-04-20T09:23:26.586Z,9.97
2019-04-20T09:26:00.082Z,10.27
2019-04-20T09:28:25.605Z,10.73
2019-04-20T09:31:02.620Z,10.10
2019-04-20T09:33:48.485Z,10.47
2019-04-20T09:36:22.582Z,10.27
2019-04-20T09:39:04.631Z,8.10
2019-04-20T09:42:00.033Z,8.97
2019-04-20T09:44:17.718Z,7.83
2019-04-20T09:46:51.567Z,8.43
2019-04-20T09:49:32.448Z,8.20
2019-04-20T09:52:01.425Z,6.87
2019-04-20T09:54:37.051Z,6.53
2019-04-20T09:57:16.089Z,6.43
2019-04-20T09:59:42.971Z,7.43
2019-04-20T10:02:06.784Z,7.43
2019-04-20T10:04:27.310Z,7.20
2019-04-20T10:07:02.233Z,7.20
2019-04-20T10:09:36.980Z,7.37
2019-04-20T10:11:59.745Z,8.10
2019-04-20T10:14:30.647Z,7.60
2019-04-20T10:17:02.007Z,8.30
2019-04-20T10:19:34.683Z,7.77
2019-04-20T10:22:02.996Z,8.17
2019-04-20T10:24:32.826Z,8.03
2019-04-20T10:27:03.037Z,7.63
2019-04-20T10:29:33.571Z,7.30
2019-04-20T10:32:07.902Z,6.93
2019-04-20T10:34:34.805Z,7.00
2019-04-20T10:37:17.719Z,6.73
2019-04-20T10:39:48.654Z,6.90
2019-04-20T10:42:18.463Z,7.67
2019-04-20T10:44:48.230Z,7.70
2019-04-20T10:47:18.964Z,5.97
2019-04-20T10:49:49.287Z,5.77
2019-04-20T10:52:19.978Z,5.03
2019-04-20T10:54:50.366Z,5.57
2019-04-20T10:57:21.520Z,6.00
2019-04-20T10:59:51.964Z,5.50
2019-04-20T11:02:21.675Z,6.63
2019-04-20T11:04:52.553Z,5.57
2019-04-20T11:07:22.845Z,5.87
2019-04-20T11:10:05.294Z,6.70
2019-04-20T11:12:24.236Z,6.23
2019-04-20T11:14:54.499Z,6.47
2019-04-20T11:17:24.575Z,6.10
2019-04-20T11:19:55.045Z,8.27
2019-04-20T11:22:24.757Z,7.53
2019-04-20T11:24:54.522Z,14.93
2019-04-20T11:27:24.102Z,7.30
2019-04-20T11:29:54.075Z,6.87
2019-04-20T11:32:24.192Z,6.50
2019-04-20T11:34:56.427Z,6.80
2019-04-20T11:37:25.206Z,6.57
2019-04-20T11:39:54.966Z,5.40
2019-04-20T11:42:25.699Z,5.50
2019-04-20T11:44:57.010Z,5.77
2019-04-20T11:47:28.068Z,5.93
2019-04-20T11:49:58.026Z,12.70
2019-04-20T11:52:28.212Z,9.30
2019-04-20T11:55:00.251Z,16.07
2019-04-20T11:57:31.185Z,42.10
2019-04-20T12:00:01.129Z,10.63
2019-04-20T12:02:46.164Z,20.63
2019-04-20T12:05:27.282Z,7.73
2019-04-20T12:07:55.426Z,8.80
2019-04-20T12:10:26.393Z,6.50
2019-04-20T12:12:57.490Z,6.27
2019-04-20T12:15:32.206Z,5.67
2019-04-20T12:18:01.870Z,6.40
2019-04-20T12:20:32.495Z,7.43
2019-04-20T12:23:02.422Z,7.30
2019-04-20T12:25:34.525Z,6.77
2019-04-20T12:28:05.189Z,6.20
2019-04-20T12:30:35.477Z,5.47
2019-04-20T12:33:05.843Z,6.03
2019-04-20T12:35:36.175Z,6.07
2019-04-20T12:38:07.203Z,5.80
2019-04-20T12:40:37.933Z,5.87
2019-04-20T12:43:08.867Z,5.20
2019-04-20T12:45:39.967Z,5.10
2019-04-20T12:48:09.732Z,4.47
2019-04-20T12:50:39.611Z,6.10
2019-04-20T12:53:10.634Z,5.43
2019-04-20T12:55:40.927Z,5.80
2019-04-20T12:58:10.634Z,6.93
2019-04-20T13:00:49.639Z,5.13
2019-04-20T13:03:19.636Z,6.50
2019-04-20T13:05:50.037Z,5.57
2019-04-20T13:08:28.523Z,6.10
2019-04-20T13:10:58.431Z,5.83
2019-04-20T13:13:46.149Z,5.87
2019-04-20T13:16:24.472Z,5.47
2019-04-20T13:18:57.233Z,6.60
2019-04-20T13:21:27.126Z,5.83
2019-04-20T13:23:56.955Z,6.70
2019-04-20T13:26:27.035Z,6.07
2019-04-20T13:28:57.108Z,5.70
2019-04-20T13:31:26.866Z,6.47
2019-04-20T13:33:57.193Z,6.53
2019-04-20T13:36:28.175Z,6.03
2019-04-20T13:38:59.422Z,6.20
2019-04-20T13:41:29.801Z,6.07
2019-04-20T13:44:01.361Z,6.10
2019-04-20T13:46:31.260Z,5.73
2019-04-20T13:49:00.979Z,6.00
2019-04-20T13:51:30.825Z,6.30
2019-04-20T13:54:01.742Z,6.03
2019-04-20T13:56:32.247Z,5.60
2019-04-20T13:59:08.317Z,6.37
2019-04-20T14:01:50.532Z,5.40
2019-04-20T14:04:26.527Z,8.70
2019-04-20T14:06:57.541Z,6.83
2019-04-20T14:09:29.614Z,7.37
2019-04-20T14:12:11.802Z,6.97
2019-04-20T14:14:34.949Z,6.77
2019-04-20T14:17:05.389Z,6.60
2019-04-20T14:19:35.148Z,6.73
2019-04-20T14:22:06.120Z,5.83
2019-04-20T14:24:37.139Z,6.30
2019-04-20T14:27:06.914Z,5.93
2019-04-20T14:29:37.028Z,5.83
2019-04-20T14:32:07.694Z,5.70
2019-04-20T14:34:38.596Z,6.30
2019-04-20T14:37:08.850Z,5.93
2019-04-20T14:39:38.790Z,5.93
2019-04-20T14:42:09.998Z,6.20
2019-04-20T14:44:40.123Z,7.40
2019-04-20T14:47:09.858Z,11.30
2019-04-20T14:49:40.856Z,5.80
2019-04-20T14:52:11.471Z,6.07
2019-04-20T14:54:41.485Z,5.60
2019-04-20T14:57:11.685Z,5.80
2019-04-20T14:59:45.928Z,5.73
2019-04-20T15:02:17.645Z,5.83
2019-04-20T15:04:47.859Z,5.77
2019-04-20T15:07:20.512Z,5.97
2019-04-20T15:09:51.033Z,5.70
2019-04-20T15:12:21.263Z,5.70
2019-04-20T15:14:52.434Z,5.40
2019-04-20T15:17:31.197Z,5.20
2019-04-20T15:20:29.729Z,5.20
2019-04-20T15:23:01.363Z,4.80
2019-04-20T15:25:31.658Z,5.93
2019-04-20T15:28:02.753Z,5.67
2019-04-20T15:30:32.519Z,5.17
2019-04-20T15:33:05.067Z,5.97
2019-04-20T15:35:34.769Z,5.50
2019-04-20T15:38:05.133Z,5.37
2019-04-20T15:40:35.258Z,5.30
2019-04-20T15:43:12.448Z,5.30
2019-04-20T15:45:37.091Z,4.90
2019-04-20T15:48:07.961Z,5.10
2019-04-20T15:50:38.163Z,4.73
2019-04-20T15:53:08.032Z,4.83
2019-04-20T15:55:40.218Z,5.40
2019-04-20T15:58:10.252Z,4.80
2019-04-20T16:00:40.536Z,4.93
2019-04-20T16:03:23.394Z,4.70
2019-04-20T16:06:03.099Z,4.57
2019-04-20T16:08:38.717Z,4.70
2019-04-20T16:11:09.225Z,4.17
2019-04-20T16:13:44.140Z,5.37
2019-04-20T16:16:11.967Z,3.57
2019-04-20T16:18:43.088Z,3.83
2019-04-20T16:21:20.955Z,4.50
2019-04-20T16:24:06.739Z,4.07
2019-04-20T16:26:44.799Z,4.20
2019-04-20T16:29:15.436Z,3.77
2019-04-20T16:31:48.110Z,3.57
2019-04-20T16:34:16.508Z,3.93
2019-04-20T16:36:46.415Z,3.83
2019-04-20T16:39:16.518Z,4.00
2019-04-20T16:41:46.508Z,3.30
2019-04-20T16:44:17.440Z,3.17
2019-04-20T16:46:48.084Z,3.50
2019-04-20T16:49:19.143Z,3.83
2019-04-20T16:51:49.333Z,3.47
2019-04-20T16:54:19.609Z,3.57
2019-04-20T16:56:49.266Z,3.20
2019-04-20T16:59:20.612Z,3.20
2019-04-20T17:01:50.609Z,2.80
2019-04-20T17:04:22.674Z,2.77
2019-04-20T17:07:20.673Z,2.80
2019-04-20T17:09:51.864Z,2.43
2019-04-20T17:12:21.741Z,2.60
2019-04-20T17:14:51.692Z,2.87
2019-04-20T17:17:21.970Z,2.43
2019-04-20T17:19:51.787Z,2.70
2019-04-20T17:22:21.581Z,2.90
2019-04-20T17:24:51.576Z,2.87
2019-04-20T17:27:46.799Z,2.90
2019-04-20T17:30:50.769Z,3.00
2019-04-20T17:33:27.604Z,2.90
2019-04-20T17:36:06.746Z,3.23
2019-04-20T17:38:36.099Z,2.63
2019-04-20T17:41:13.965Z,3.07
2019-04-20T17:43:38.899Z,2.87
2019-04-20T17:46:10.358Z,2.90
2019-04-20T17:48:42.988Z,2.80
2019-04-20T17:51:23.522Z,2.83
2019-04-20T17:54:05.324Z,2.90
2019-04-20T17:56:38.439Z,3.43
2019-04-20T17:59:08.244Z,3.50
2019-04-20T18:02:24.958Z,3.53
2019-04-20T18:05:37.022Z,3.53
2019-04-20T18:08:04.117Z,3.43
2019-04-20T18:10:31.225Z,3.73
2019-04-20T18:12:50.196Z,4.10
2019-04-20T18:15:36.934Z,7.47
2019-04-20T18:18:24.113Z,9.43
2019-04-20T18:20:56.995Z,12.90
2019-04-20T18:23:33.507Z,12.27
2019-04-20T18:26:17.253Z,9.43
2019-04-20T18:28:54.825Z,8.07
2019-04-20T18:31:19.661Z,5.67
2019-04-20T18:33:50.613Z,4.50
2019-04-20T18:36:27.272Z,3.50
2019-04-20T18:38:57.464Z,3.37
2019-04-20T18:41:31.874Z,3.47
2019-04-20T18:43:58.573Z,4.20
2019-04-20T18:46:49.426Z,3.33
2019-04-20T18:49:14.818Z,3.40
2019-04-20T18:51:28.199Z,3.20
2019-04-20T18:54:06.479Z,4.03
2019-04-20T18:56:35.236Z,3.63
2019-04-20T18:59:01.125Z,3.77
2019-04-20T19:01:34.860Z,3.60
2019-04-20T19:04:03.746Z,3.97
2019-04-20T19:06:34.076Z,3.70
2019-04-20T19:09:10.488Z,4.33
2019-04-20T19:11:43.840Z,3.83
2019-04-20T19:14:33.624Z,3.90
2019-04-20T19:17:11.094Z,3.57
2019-04-20T19:19:44.569Z,4.07
2019-04-20T19:22:10.139Z,3.90
2019-04-20T19:24:41.583Z,4.60
2019-04-20T19:27:15.616Z,4.13
2019-04-20T19:29:54.629Z,5.70
2019-04-20T19:32:29.997Z,5.97
2019-04-20T19:34:57.549Z,6.17
2019-04-20T19:37:26.050Z,5.60
2019-04-20T19:40:02.890Z,5.83
2019-04-20T19:42:34.898Z,5.97
2019-04-20T19:45:16.841Z,6.20
2019-04-20T19:47:44.125Z,5.07
2019-04-20T19:50:25.154Z,5.70
2019-04-20T19:52:53.099Z,5.20
2019-04-20T19:55:14.431Z,5.10
2019-04-20T19:57:45.544Z,5.20
2019-04-20T19:59:59.965Z,5.13
2019-04-20T20:02:29.997Z,4.67
2019-04-20T20:05:06.299Z,5.57
2019-04-20T20:07:37.769Z,5.00
2019-04-20T20:10:05.814Z,4.67
2019-04-20T20:12:33.701Z,5.13
2019-04-20T20:15:07.417Z,5.00
2019-04-20T20:17:54.437Z,4.67
2019-04-20T20:20:33.706Z,4.83
2019-04-20T20:22:44.710Z,4.90
2019-04-20T20:25:09.489Z,4.80
2019-04-20T20:27:47.579Z,5.03
2019-04-20T20:30:20.508Z,4.97
2019-04-20T20:32:56.419Z,4.93
2019-04-20T20:35:23.050Z,4.60
2019-04-20T20:37:50.154Z,5.27
2019-04-20T20:40:25.358Z,5.07
2019-04-20T20:43:02.047Z,5.10
2019-04-20T20:45:29.620Z,4.90
2019-04-20T20:48:09.139Z,5.43
2019-04-20T20:50:42.424Z,5.40
2019-04-20T20:53:06.338Z,6.03
2019-04-20T20:55:32.124Z,5.90
2019-04-20T20:58:05.196Z,4.93
2019-04-20T21:00:41.871Z,5.80
2019-04-20T21:03:03.866Z,6.37
2019-04-20T21:05:31.475Z,13.00
2019-04-20T21:08:01.682Z,10.30
2019-04-20T21:10:37.560Z,10.83
2019-04-20T21:13:06.564Z,8.47
2019-04-20T21:15:35.097Z,7.73
2019-04-20T21:18:43.498Z,13.10
2019-04-20T21:21:13.296Z,8.37
2019-04-20T21:23:37.014Z,10.33
2019-04-20T21:26:12.882Z,7.70
2019-04-20T21:28:41.963Z,8.93
2019-04-20T21:31:21.443Z,7.07
2019-04-20T21:33:47.005Z,7.77
2019-04-20T21:36:29.977Z,6.83
2019-04-20T21:38:59.507Z,6.60
2019-04-20T21:41:30.809Z,6.73
2019-04-20T21:44:01.367Z,6.67
2019-04-20T21:46:40.844Z,7.30
2019-04-20T21:49:18.226Z,8.70
2019-04-20T21:51:44.356Z,10.43
2019-04-20T21:54:06.798Z,9.03
2019-04-20T21:56:38.312Z,8.33
2019-04-20T21:59:16.443Z,7.20
2019-04-20T22:01:46.300Z,8.63
2019-04-20T22:04:12.179Z,9.83
2019-04-20T22:06:42.411Z,9.30
2019-04-20T22:09:14.730Z,10.73
2019-04-20T22:11:44.394Z,11.10
2019-04-20T22:14:18.681Z,12.07
2019-04-20T22:16:49.538Z,9.23
2019-04-20T22:19:33.469Z,12.23
2019-04-20T22:22:01.949Z,11.37
2019-04-20T22:24:37.278Z,17.30
2019-04-20T22:27:04.636Z,12.17
2019-04-20T22:29:22.005Z,11.87
2019-04-20T22:31:57.384Z,11.73
2019-04-20T22:34:26.067Z,12.07
2019-04-20T22:36:58.054Z,10.03
2019-04-20T22:39:39.355Z,11.67
2019-04-20T22:42:09.010Z,10.93
2019-04-20T22:44:36.416Z,10.97
2019-04-20T22:47:15.657Z,11.33
2019-04-20T22:49:52.909Z,11.23
2019-04-20T22:52:27.817Z,12.13
2019-04-20T22:55:01.361Z,11.43
2019-04-20T22:57:31.596Z,11.10
2019-04-20T22:59:56.889Z,14.57
2019-04-20T23:02:22.925Z,11.47
2019-04-20T23:04:52.956Z,12.30
2019-04-20T23:07:26.459Z,13.73
2019-04-20T23:09:58.447Z,13.10
2019-04-20T23:12:29.241Z,13.60
2019-04-20T23:14:58.877Z,13.73
2019-04-20T23:17:35.857Z,12.43
2019-04-20T23:20:03.131Z,12.73
2019-04-20T23:22:36.846Z,15.23
2019-04-20T23:25:03.142Z,15.00
2019-04-20T23:27:39.084Z,15.73
2019-04-20T23:30:12.584Z,16.13
2019-04-20T23:32:39.967Z,17.07
2019-04-20T23:35:15.995Z,15.33
2019-04-20T23:37:42.282Z,14.03
2019-04-20T23:40:14.609Z,13.83
2019-04-20T23:42:51.717Z,14.83
2019-04-20T23:45:52.659Z,13.93
2019-04-20T23:48:43.429Z,13.20
2019-04-20T23:51:36.370Z,13.00
2019-04-20T23:53:56.670Z,12.50
2019-04-20T23:56:18.685Z,13.07
2019-04-20T23:58:52.921Z,13.13
